sim
Sign-in with your pilot id or email,
or register
Callsign
Passwort

Schedule Details

Flight Number: OEO8913
Departure: Maastricht Aachen Airport (EHBK) at 07:45
Arrival: Munich Airport (EDDM) at 09:05

Weather Information
Getting current METAR information for EHBK 201655Z AUTO 05005KT 9999 NCD 22/06 Q1016 NOSIG
Getting current METAR information for EDDM 201650Z 04003KT 350V050 CAVOK 20/11 Q1015 NOSIG

Schedule Frequency

Route Map